Rock Springs, WY

4:43 AM MDT on August 01, 2014 (GMT -0600)
Rock Springs-Sweetwater (KRKS) Elev 6759 ft | 41.59 °N, 109.05 °W | Change Station

Current weather conditions updated 49 minutes ago

Clear
Clear
57 °F
Feels Like 57 °F
N
0
Wind Variable Wind from North

Today is forecast to be Warmer than yesterday.

Today
High -- | Low -- °F
--% Chance of Precip.
Yesterday
High -- | Low -- °F
Precip. -- in
6:10 AM 8:33 PM
Waxing Crescent, 25% visible
Pressure 30.05 in
Visibility 10.0 miles
Clouds Clear
Dew Point 36 °F
Humidity 45%
Rainfall 0.00 in
Snow Depth Not available.
UV 0 out of 12
Pollen 6.60 out of 12
Air Quality Not available.
Flu Activity Not available.
METAR KRKS 010954Z AUTO 00000KT 10SM CLR 14/02 A3030 RMK AO2 SLP176 T01390022

More Conditions Fewer Conditions

Pressure 30.05 in
Visibility 10.0 miles
Clouds Clear
Dew Point 36 °F
Humidity 45%
Rainfall 0.00 in
Snow Depth Not available.
UV 0 out of 12
Pollen 6.60 out of 12
Air Quality Not available.
Flu Activity Not available.
METAR KRKS 010954Z AUTO 00000KT 10SM CLR 14/02 A3030 RMK AO2 SLP176 T01390022

More Conditions Fewer Conditions

10-Day Weather Forecast

Almanac

Astronomy

Aug. 01, 2014 Rise Set
Actual Time 6:10 AM MDT 8:33 PM MDT
Civil Twilight 5:38 AM MDT 9:04 PM MDT
Nautical Twilight 5:00 AM MDT 9:43 PM MDT
Astronomical Twilight 4:16 AM MDT 10:26 PM MDT
Moon 11:42 AM MDT 11:14 PM MDT
Length of Visible Light 15h 25m
Length of Day
14h 23m
Tomorrow will be 2m 9s shorter.
Waxing Crescent, 25% of the Moon is Illuminated
Today
Waxing Crescent
Aug 3
First Quarter
Aug 10
Full
Aug 17
Last Quarter
Aug 25
New

Today's Extremes

State Highs State Lows

Community

WunderPhotos

Upload Photos

1,739,534 photos uploaded!

Nearby

Snow Depth

Station Depth Elevation
South Pass 0 in 9040 ft
Big Sandy Opening 1 in 9080 ft
Hobbs Park 0 in 10100 ft
Divide Peak 0 in 8860 ft
Battle Mountain 0 in 7440 ft

Earthquake Activity

City Distance Mag. Time & Date
No recent earthquake activity has been reported nearby.
Minimum magnitude displayed is 2.5.

Coastal Water Temperatures

Place Temperature
No Stations Reporting

Nearby Weather Stations

Station Location Temp. Windchill Dew Point Humidity Wind Precip. Elev Updated Type
MesoWest HALLV1 , Point Of Rocks, WY 44 °F 44 °F - - North  at  - 0.00 in / hr 6567 ft 3:00 AM MDT MADIS
RAWS SNOW SPRINGS CREEK WY, Rock Springs, WY 60 °F - 34 °F 37% North  at  2 mph 0.00 in / hr 7549 ft 3:44 AM MDT MADIS
Fairway Estates, Rock Springs, WY 50.2 °F - 41 °F 70% NW  at  2.0 mph 0.00 in / hr 6430 ft 4:42 AM MDT Normal
MesoWest KANDAW , Rock Springs, WY 51 °F - - - North  at  - 0.00 in / hr 6211 ft 3:00 AM MDT MADIS
HADS BITTER CREEK 4 NE WY, Rock Springs, WY 47 °F 47 °F - - North  at  - 0.00 in / hr 6720 ft 4:00 AM MDT MADIS

Show More Stations Show Fewer Stations